Time;durP1;ratioP1;P1;durP2;ratioP2;P2;SDS_P1;SDS_P2;PMS_P1;PMS_P2;Temp;Humidity;BMP_temperature;BMP_pressure;BME280_temperature;BME280_humidity;BME280_pressure;Samples;Min_cycle;Max_cycle;Signal;HPM_P1;HPM_P2
2021/05/21 00:00:29;;;;;;;3.13;2.60;;;;;;;11.05;87.67;98022.63;5092933;28;20565;-67
2021/05/21 00:02:56;;;;;;;3.23;2.90;;;;;;;11.02;87.91;98023.69;5092993;28;20581;-68
2021/05/21 00:05:22;;;;;;;5.43;3.00;;;;;;;11.00;87.74;98020.34;5092956;28;20302;-67
2021/05/21 00:07:48;;;;;;;3.83;3.00;;;;;;;10.99;88.12;98025.72;5092734;28;20208;-71
2021/05/21 00:10:14;;;;;;;3.27;2.70;;;;;;;10.98;88.48;98016.97;5092427;28;20217;-69
2021/05/21 00:12:40;;;;;;;4.70;3.07;;;;;;;11.00;88.60;98014.22;5092732;28;20244;-67
2021/05/21 00:15:09;;;;;;;4.33;2.87;;;;;;;11.00;88.65;98016.84;5092763;28;20212;-66
2021/05/21 00:17:35;;;;;;;3.70;2.80;;;;;;;11.02;88.65;98007.81;5092413;28;20699;-66
2021/05/21 00:20:01;;;;;;;3.73;2.57;;;;;;;11.02;88.19;97999.06;5092411;28;20211;-66
2021/05/21 00:22:27;;;;;;;3.10;2.80;;;;;;;11.03;88.45;98003.41;5092413;28;20233;-66
2021/05/21 00:24:53;;;;;;;3.23;2.70;;;;;;;11.04;88.87;98005.09;5091021;28;20226;-66
2021/05/21 00:27:18;;;;;;;4.73;3.00;;;;;;;11.03;88.49;97995.47;5094310;28;20252;-66
2021/05/21 00:29:44;;;;;;;3.73;2.60;;;;;;;10.99;88.69;97986.06;5096744;28;20206;-67
2021/05/21 00:32:11;;;;;;;2.97;2.60;;;;;;;10.99;88.31;97978.97;5096326;28;20262;-67
2021/05/21 00:34:37;;;;;;;3.30;2.60;;;;;;;11.00;88.37;97985.13;5096392;28;20591;-67
2021/05/21 00:37:03;;;;;;;4.23;2.83;;;;;;;10.98;88.60;97979.09;5096377;28;20221;-68
2021/05/21 00:39:29;;;;;;;2.90;2.43;;;;;;;10.97;89.13;97986.19;5096103;28;20755;-70
2021/05/21 00:41:55;;;;;;;3.20;2.73;;;;;;;10.93;89.28;97982.06;5096159;28;20329;-68
2021/05/21 00:44:21;;;;;;;3.33;2.60;;;;;;;10.92;89.17;97984.81;5096189;28;20207;-68
2021/05/21 00:46:47;;;;;;;2.77;2.50;;;;;;;10.95;88.51;97989.91;5096054;28;20297;-69
2021/05/21 00:49:17;;;;;;;3.40;2.50;;;;;;;10.93;88.39;97979.44;5095868;28;20677;-68
2021/05/21 00:51:43;;;;;;;3.13;2.80;;;;;;;10.92;88.45;97969.81;5094376;28;20737;-68
2021/05/21 00:54:10;;;;;;;4.43;2.90;;;;;;;10.88;88.98;97964.88;5096272;28;20218;-68
2021/05/21 00:56:36;;;;;;;3.97;2.80;;;;;;;10.86;89.77;97953.53;5096111;28;20211;-68
2021/05/21 00:59:02;;;;;;;4.23;3.13;;;;;;;10.82;89.91;97931.78;5095303;28;20248;-68
2021/05/21 01:01:30;;;;;;;3.30;2.63;;;;;;;10.77;90.62;97927.78;5096029;28;20570;-68
2021/05/21 01:03:56;;;;;;;3.17;2.70;;;;;;;10.73;90.94;97931.59;5095836;28;20593;-68
2021/05/21 01:06:23;;;;;;;3.30;2.33;;;;;;;10.72;91.17;97933.41;5097483;28;20213;-68
2021/05/21 01:08:49;;;;;;;3.00;2.60;;;;;;;10.69;91.41;97935.41;5098881;28;20203;-67
2021/05/21 01:11:15;;;;;;;3.40;2.60;;;;;;;10.70;90.46;97937.13;5098501;28;20210;-66
2021/05/21 01:13:41;;;;;;;2.80;2.20;;;;;;;10.69;90.09;97924.84;5095164;28;20238;-66
2021/05/21 01:16:07;;;;;;;3.00;2.47;;;;;;;10.70;88.53;97911.53;5095325;28;20292;-66
2021/05/21 01:18:33;;;;;;;2.17;1.97;;;;;;;10.76;88.02;97910.25;5093928;28;20215;-67
2021/05/21 01:21:00;;;;;;;2.73;2.00;;;;;;;10.83;86.72;97914.94;5095204;28;21840;-67
2021/05/21 01:23:27;;;;;;;2.40;2.17;;;;;;;10.82;87.23;97936.22;5095295;28;20210;-68
2021/05/21 01:25:53;;;;;;;2.03;1.83;;;;;;;10.81;86.50;97934.53;5095316;28;20204;-68
2021/05/21 01:28:19;;;;;;;1.83;1.73;;;;;;;10.85;85.90;97914.84;5095291;28;20203;-68
2021/05/21 01:30:47;;;;;;;1.63;1.53;;;;;;;10.83;85.35;97906.19;5095236;28;20230;-68
2021/05/21 01:33:13;;;;;;;1.97;1.80;;;;;;;10.83;85.40;97895.63;5094946;28;20231;-68
2021/05/21 01:35:40;;;;;;;3.23;1.90;;;;;;;10.80;85.39;97898.47;5095207;28;20665;-68
2021/05/21 01:38:07;;;;;;;1.80;1.67;;;;;;;10.77;85.35;97910.13;5094049;28;20737;-66
2021/05/21 01:40:35;;;;;;;2.10;1.90;;;;;;;10.77;84.66;97904.81;5094856;28;20218;-69
2021/05/21 01:43:02;;;;;;;2.23;1.70;;;;;;;10.80;84.16;97901.13;5093440;28;20240;-68
2021/05/21 01:45:28;;;;;;;2.43;1.53;;;;;;;10.79;84.20;97894.16;5094983;28;20210;-67
2021/05/21 01:47:54;;;;;;;1.97;1.50;;;;;;;10.80;83.78;97894.03;5094971;28;20210;-67
2021/05/21 01:50:20;;;;;;;2.63;1.50;;;;;;;10.76;84.01;97889.94;5094803;28;20531;-67
2021/05/21 01:52:46;;;;;;;2.23;1.73;;;;;;;10.77;84.01;97885.50;5094578;28;20711;-68
2021/05/21 01:55:13;;;;;;;1.63;1.53;;;;;;;10.75;84.25;97887.38;5094764;28;20593;-67
2021/05/21 01:57:40;;;;;;;1.70;1.60;;;;;;;10.80;84.06;97885.25;5094815;28;20211;-67
2021/05/21 02:00:09;;;;;;;1.97;1.60;;;;;;;10.73;84.74;97873.44;5094643;28;20605;-69
2021/05/21 02:02:36;;;;;;;1.90;1.50;;;;;;;10.73;84.42;97878.75;5094494;28;20214;-67
2021/05/21 02:05:04;;;;;;;1.67;1.57;;;;;;;10.75;84.57;97872.38;5094472;28;20212;-67
2021/05/21 02:07:30;;;;;;;1.53;1.43;;;;;;;10.79;84.58;97873.00;5094563;28;20203;-67
2021/05/21 02:09:58;;;;;;;1.70;1.50;;;;;;;10.74;84.34;97873.34;5092520;28;20207;-68
2021/05/21 02:12:26;;;;;;;2.13;1.50;;;;;;;10.76;83.77;97867.97;5094019;28;20239;-68
2021/05/21 02:14:52;;;;;;;1.70;1.37;;;;;;;10.77;83.11;97870.47;5094521;28;20555;-68
2021/05/21 02:17:18;;;;;;;2.37;1.40;;;;;;;10.81;82.24;97860.50;5094565;28;20214;-68
2021/05/21 02:19:44;;;;;;;1.60;1.50;;;;;;;10.74;82.68;97857.50;5094046;28;20288;-68
2021/05/21 02:22:11;;;;;;;1.50;1.40;;;;;;;10.72;83.27;97855.91;5094388;28;20241;-70
2021/05/21 02:24:37;;;;;;;3.63;1.63;;;;;;;10.74;82.02;97849.56;5094184;28;20215;-68
2021/05/21 02:27:04;;;;;;;1.30;1.20;;;;;;;10.70;82.36;97848.09;5094246;28;20222;-68
2021/05/21 02:29:30;;;;;;;1.50;1.23;;;;;;;10.64;83.05;97834.50;5094052;28;20206;-68
2021/05/21 02:31:56;;;;;;;1.50;1.40;;;;;;;10.64;82.94;97839.78;5093738;28;20698;-68
2021/05/21 02:34:22;;;;;;;2.07;1.20;;;;;;;10.61;83.29;97832.06;5093763;28;20214;-66
2021/05/21 02:36:49;;;;;;;1.30;1.20;;;;;;;10.61;82.62;97834.72;5092533;28;20220;-68
2021/05/21 02:39:15;;;;;;;1.10;1.00;;;;;;;10.65;82.25;97829.06;5093797;28;20211;-68
2021/05/21 02:41:41;;;;;;;3.13;1.50;;;;;;;10.58;82.91;97827.03;5093537;28;20280;-68
2021/05/21 02:44:07;;;;;;;1.53;1.20;;;;;;;10.68;82.12;97833.28;5093780;28;20256;-68
2021/05/21 02:46:34;;;;;;;1.77;1.30;;;;;;;10.72;81.60;97826.84;5093719;28;20218;-69
2021/05/21 02:49:00;;;;;;;1.20;1.10;;;;;;;10.73;81.47;97815.31;5093939;28;20217;-69
2021/05/21 02:51:26;;;;;;;1.90;1.00;;;;;;;10.80;80.67;97816.53;5093377;28;20210;-68
2021/05/21 02:53:52;;;;;;;1.23;1.07;;;;;;;10.82;79.92;97820.75;5093784;28;20205;-68
2021/05/21 02:56:18;;;;;;;1.13;1.03;;;;;;;10.81;80.11;97812.91;5093492;28;20208;-68
2021/05/21 02:58:44;;;;;;;1.80;1.10;;;;;;;10.80;80.26;97816.53;5093638;28;20259;-68
2021/05/21 03:01:10;;;;;;;1.03;0.90;;;;;;;10.81;80.34;97807.63;5091668;28;20211;-67
2021/05/21 03:03:37;;;;;;;1.43;1.00;;;;;;;10.85;80.52;97814.38;5093446;28;20298;-67
2021/05/21 03:06:03;;;;;;;1.87;1.10;;;;;;;10.93;79.71;97806.72;5093521;28;20206;-67
2021/05/21 03:08:29;;;;;;;1.47;1.10;;;;;;;11.03;78.76;97807.72;5093193;28;20217;-67
2021/05/21 03:10:55;;;;;;;1.23;1.13;;;;;;;11.11;78.38;97805.31;5093296;28;20202;-66
2021/05/21 03:13:21;;;;;;;1.50;1.10;;;;;;;11.17;78.18;97799.56;5093650;28;20238;-66
2021/05/21 03:15:49;;;;;;;1.40;1.00;;;;;;;11.16;78.41;97792.59;5093305;28;20211;-67
2021/05/21 03:18:17;;;;;;;0.97;0.97;;;;;;;11.20;78.27;97780.81;5093286;28;20210;-67
2021/05/21 03:20:45;;;;;;;1.20;1.10;;;;;;;11.21;78.24;97785.13;5093140;28;20676;-66
2021/05/21 03:23:11;;;;;;;1.30;1.20;;;;;;;11.27;77.98;97785.53;5093414;28;20211;-66
2021/05/21 03:25:37;;;;;;;1.20;1.10;;;;;;;11.32;77.08;97772.75;5093083;28;20210;-65
2021/05/21 03:28:04;;;;;;;1.30;1.17;;;;;;;11.40;76.86;97769.53;5091396;28;20218;-66
2021/05/21 03:30:30;;;;;;;1.43;1.10;;;;;;;11.40;77.14;97764.22;5093324;28;20202;-66
2021/05/21 03:32:56;;;;;;;1.07;0.87;;;;;;;11.37;77.45;97764.47;5093168;28;20226;-67
2021/05/21 03:35:22;;;;;;;1.10;1.00;;;;;;;11.27;78.20;97764.34;5093527;28;20245;-66
2021/05/21 03:37:49;;;;;;;1.00;0.90;;;;;;;11.16;78.61;97772.28;5092852;28;20209;-66
2021/05/21 03:40:15;;;;;;;0.90;0.90;;;;;;;11.07;78.95;97758.91;5093644;28;20214;-67
2021/05/21 03:42:41;;;;;;;0.90;0.90;;;;;;;11.00;79.10;97770.94;5092947;28;20238;-68
2021/05/21 03:45:08;;;;;;;1.10;0.90;;;;;;;10.94;78.91;97756.38;5092873;28;20211;-67
2021/05/21 03:47:34;;;;;;;2.17;1.13;;;;;;;10.84;79.91;97762.47;5093041;28;20206;-67
2021/05/21 03:50:00;;;;;;;1.00;0.97;;;;;;;10.75;80.72;97765.78;5092984;28;20200;-67
2021/05/21 03:52:26;;;;;;;1.33;1.23;;;;;;;10.70;81.19;97760.88;5092883;28;20300;-67
2021/05/21 03:54:54;;;;;;;1.60;1.00;;;;;;;10.65;81.15;97770.13;5091600;28;20214;-67
2021/05/21 03:57:21;;;;;;;1.63;1.00;;;;;;;10.59;81.35;97770.56;5092944;28;20574;-67
2021/05/21 03:59:47;;;;;;;1.00;0.90;;;;;;;10.57;81.96;97761.91;5092988;28;20211;-67
2021/05/21 04:02:13;;;;;;;1.77;0.90;;;;;;;10.59;81.29;97765.28;5094582;28;20220;-67
2021/05/21 04:04:39;;;;;;;0.90;0.90;;;;;;;10.59;81.35;97760.00;5096613;28;20683;-67
2021/05/21 04:07:05;;;;;;;1.57;1.07;;;;;;;10.57;81.71;97751.31;5096590;28;20211;-67
2021/05/21 04:09:31;;;;;;;1.10;1.00;;;;;;;10.56;81.06;97749.66;5096634;28;20211;-66
2021/05/21 04:11:59;;;;;;;0.97;0.93;;;;;;;10.61;81.48;97744.88;5096794;28;20234;-66
2021/05/21 04:14:25;;;;;;;1.20;1.10;;;;;;;10.64;81.43;97744.66;5096722;28;20581;-66
2021/05/21 04:16:51;;;;;;;1.67;1.57;;;;;;;10.70;81.61;97736.25;5096552;28;20207;-66
2021/05/21 04:19:17;;;;;;;1.50;1.30;;;;;;;10.71;81.84;97743.22;5094819;28;20217;-66
2021/05/21 04:21:43;;;;;;;1.63;1.00;;;;;;;10.75;82.05;97737.56;5096620;28;20251;-66
2021/05/21 04:24:10;;;;;;;1.03;0.97;;;;;;;10.84;80.86;97730.75;5096633;28;20206;-66
2021/05/21 04:26:36;;;;;;;3.07;1.27;;;;;;;10.85;81.17;97729.78;5096508;28;20681;-66
2021/05/21 04:29:03;;;;;;;1.73;1.00;;;;;;;10.90;81.29;97732.94;5096657;28;20253;-66
2021/05/21 04:31:29;;;;;;;1.00;0.90;;;;;;;10.98;80.42;97725.25;5098958;28;20638;-66
2021/05/21 04:33:55;;;;;;;1.00;0.90;;;;;;;11.12;79.56;97722.38;5098911;28;20243;-66
2021/05/21 04:36:21;;;;;;;1.17;1.10;;;;;;;11.27;79.10;97726.47;5096439;28;20207;-66
2021/05/21 04:38:47;;;;;;;1.90;1.10;;;;;;;11.41;78.79;97718.28;5096271;28;20203;-66
2021/05/21 04:41:13;;;;;;;1.03;0.93;;;;;;;11.53;78.41;97728.75;5095895;28;20272;-66
2021/05/21 04:43:40;;;;;;;2.97;1.07;;;;;;;11.60;78.79;97719.38;5095990;28;20677;-66
2021/05/21 04:46:07;;;;;;;2.57;0.93;;;;;;;11.66;76.95;97718.91;5094363;28;20260;-66
2021/05/21 04:48:33;;;;;;;1.60;1.00;;;;;;;11.73;76.75;97716.63;5096202;28;20226;-68
2021/05/21 04:50:59;;;;;;;1.47;0.97;;;;;;;11.80;76.83;97709.84;5096312;28;20214;-68
2021/05/21 04:53:25;;;;;;;1.20;1.10;;;;;;;11.89;76.38;97712.59;5096289;28;20234;-67
2021/05/21 04:55:52;;;;;;;1.17;0.90;;;;;;;11.92;76.84;97708.88;5096038;28;20207;-67
2021/05/21 04:58:18;;;;;;;1.50;1.30;;;;;;;11.98;77.00;97703.91;5095870;28;20222;-66
2021/05/21 05:00:44;;;;;;;2.50;1.10;;;;;;;12.05;76.63;97704.25;5095544;28;20246;-68
2021/05/21 05:03:15;;;;;;;1.33;1.10;;;;;;;12.07;75.50;97692.56;5095545;28;20212;-68
2021/05/21 05:05:41;;;;;;;1.23;1.10;;;;;;;12.16;74.67;97701.56;5095984;28;20211;-67
2021/05/21 05:08:09;;;;;;;1.37;1.10;;;;;;;12.21;75.25;97691.41;5095513;28;20217;-66
2021/05/21 05:10:35;;;;;;;1.40;1.13;;;;;;;12.28;74.91;97689.97;5095489;28;20208;-66
2021/05/21 05:13:01;;;;;;;1.10;1.00;;;;;;;12.35;76.23;97684.00;5093953;28;20338;-66
2021/05/21 05:15:27;;;;;;;1.30;1.03;;;;;;;12.43;76.29;97686.03;5095246;28;20717;-66
2021/05/21 05:17:53;;;;;;;1.20;1.10;;;;;;;12.46;76.39;97680.47;5095540;28;20269;-66
2021/05/21 05:20:22;;;;;;;1.47;1.03;;;;;;;12.55;75.62;97674.41;5095490;28;20216;-66
2021/05/21 05:22:48;;;;;;;2.33;1.13;;;;;;;12.64;73.59;97665.66;5095239;28;20722;-66
2021/05/21 05:25:15;;;;;;;2.20;1.10;;;;;;;12.72;72.51;97663.22;5095507;28;20232;-66
2021/05/21 05:27:41;;;;;;;0.97;0.70;;;;;;;12.80;71.80;97664.25;5095345;28;20220;-66
2021/05/21 05:30:09;;;;;;;1.63;0.90;;;;;;;12.84;70.59;97656.84;5095413;28;20218;-67
2021/05/21 05:32:35;;;;;;;2.97;0.90;;;;;;;12.87;69.10;97645.97;5094935;28;20715;-67
2021/05/21 05:35:01;;;;;;;1.63;0.80;;;;;;;12.90;68.22;97651.03;5094985;28;20308;-67
2021/05/21 05:37:28;;;;;;;2.60;1.00;;;;;;;13.04;67.56;97648.06;5093334;28;20212;-66
2021/05/21 05:39:53;;;;;;;2.20;0.70;;;;;;;13.14;67.63;97648.94;5095012;28;20214;-67
2021/05/21 05:42:19;;;;;;;1.63;0.80;;;;;;;13.18;66.38;97655.63;5095205;28;20318;-66
2021/05/21 05:44:45;;;;;;;1.53;0.90;;;;;;;13.19;66.73;97647.56;5094990;28;20313;-66
2021/05/21 05:47:11;;;;;;;1.70;0.80;;;;;;;13.29;65.48;97647.59;5094734;28;20671;-66
2021/05/21 05:49:37;;;;;;;0.70;0.70;;;;;;;13.33;64.81;97649.84;5094792;28;20207;-66
2021/05/21 05:52:04;;;;;;;2.10;0.83;;;;;;;13.36;65.45;97643.41;5094508;28;20273;-66
2021/05/21 05:54:31;;;;;;;2.33;0.87;;;;;;;13.46;64.50;97644.31;5094870;28;20207;-66
2021/05/21 05:56:57;;;;;;;1.67;0.80;;;;;;;13.49;64.29;97644.00;5094750;28;20251;-66
2021/05/21 05:59:25;;;;;;;1.17;0.73;;;;;;;13.53;62.83;97648.09;5094629;28;20211;-67
2021/05/21 06:01:51;;;;;;;2.00;0.97;;;;;;;13.66;63.17;97643.38;5094489;28;20217;-67
2021/05/21 06:04:17;;;;;;;2.27;0.70;;;;;;;13.70;62.50;97647.44;5092854;28;20352;-67
2021/05/21 06:06:43;;;;;;;1.70;0.90;;;;;;;13.83;62.93;97648.00;5094217;28;20693;-67
2021/05/21 06:09:09;;;;;;;0.70;0.60;;;;;;;13.91;62.34;97651.66;5094295;28;20212;-67
2021/05/21 06:11:36;;;;;;;1.07;0.90;;;;;;;14.03;62.08;97642.59;5094279;28;20208;-66
2021/05/21 06:14:03;;;;;;;1.53;0.70;;;;;;;14.15;62.20;97640.63;5094514;28;20238;-67
2021/05/21 06:16:29;;;;;;;0.77;0.67;;;;;;;14.25;62.23;97629.03;5094695;28;20207;-67
2021/05/21 06:18:55;;;;;;;0.97;0.70;;;;;;;14.40;61.06;97632.97;5090917;28;20272;-67
2021/05/21 06:21:21;;;;;;;2.10;0.90;;;;;;;14.50;61.56;97632.94;5093321;28;20235;-66
2021/05/21 06:23:48;;;;;;;0.70;0.70;;;;;;;14.58;61.41;97625.94;5094149;28;20210;-67
2021/05/21 06:26:18;;;;;;;1.00;0.90;;;;;;;14.65;60.82;97620.88;5093886;28;20234;-67
2021/05/21 06:28:46;;;;;;;1.23;0.80;;;;;;;14.69;60.84;97622.25;5094110;28;20213;-67
2021/05/21 06:31:12;;;;;;;0.80;0.80;;;;;;;14.80;60.68;97620.25;5092388;28;20237;-67
2021/05/21 06:33:38;;;;;;;1.37;1.00;;;;;;;14.90;60.33;97609.63;5093924;28;20269;-66
2021/05/21 06:36:05;;;;;;;2.00;1.00;;;;;;;15.01;60.56;97604.94;5093704;28;20251;-67
2021/05/21 06:38:31;;;;;;;1.00;0.80;;;;;;;15.06;59.91;97605.34;5093675;28;20220;-68
2021/05/21 06:40:57;;;;;;;1.00;0.80;;;;;;;15.08;60.14;97603.38;5092781;28;20253;-67
2021/05/21 06:43:23;;;;;;;2.77;0.80;;;;;;;15.01;59.04;97599.63;5093437;28;20214;-67
2021/05/21 06:45:50;;;;;;;1.10;0.80;;;;;;;15.03;59.31;97594.97;5093064;28;20223;-67
2021/05/21 06:48:16;;;;;;;0.70;0.70;;;;;;;15.01;59.08;97606.75;5093219;28;20217;-67
2021/05/21 06:50:43;;;;;;;0.93;0.60;;;;;;;14.95;58.84;97607.34;5093189;28;20245;-67
2021/05/21 06:53:09;;;;;;;1.13;0.80;;;;;;;14.94;58.82;97606.53;5093218;28;20242;-67
2021/05/21 06:55:35;;;;;;;0.63;0.60;;;;;;;15.06;58.96;97599.19;5091486;28;20211;-67
2021/05/21 06:58:01;;;;;;;0.60;0.60;;;;;;;15.13;59.15;97595.78;5092855;28;20674;-67
2021/05/21 07:00:27;;;;;;;1.10;0.90;;;;;;;15.23;58.95;97590.41;5093027;28;20300;-66
2021/05/21 07:02:54;;;;;;;0.80;0.80;;;;;;;15.28;58.26;97582.84;5093142;28;20214;-67
2021/05/21 07:05:20;;;;;;;3.07;0.73;;;;;;;15.32;58.37;97578.88;5092836;28;20214;-67
2021/05/21 07:07:46;;;;;;;1.17;0.80;;;;;;;15.28;58.56;97574.84;5092888;28;20207;-66
2021/05/21 07:10:13;;;;;;;1.67;0.80;;;;;;;15.38;58.12;97589.81;5092896;28;20205;-67
2021/05/21 07:12:39;;;;;;;1.13;0.87;;;;;;;15.41;57.57;97578.84;5092803;28;20237;-68
2021/05/21 07:15:06;;;;;;;1.70;0.73;;;;;;;15.46;57.37;97587.22;5092675;28;20211;-66
2021/05/21 07:17:32;;;;;;;0.97;0.80;;;;;;;15.43;57.04;97582.22;5092932;28;20213;-66
2021/05/21 07:19:59;;;;;;;1.50;0.73;;;;;;;15.49;57.15;97580.78;5093122;28;20262;-66
2021/05/21 07:22:25;;;;;;;2.00;0.80;;;;;;;15.50;57.27;97588.63;5090900;28;20241;-66
2021/05/21 07:24:51;;;;;;;1.40;0.60;;;;;;;15.44;57.05;97583.88;5092636;28;20262;-66
2021/05/21 07:27:17;;;;;;;0.77;0.70;;;;;;;15.44;56.87;97586.56;5092350;28;20674;-67
2021/05/21 07:29:43;;;;;;;0.80;0.60;;;;;;;15.53;57.12;97588.31;5092728;28;20266;-67
2021/05/21 07:32:09;;;;;;;1.67;0.80;;;;;;;15.59;56.94;97581.56;5092754;28;20297;-66
2021/05/21 07:34:36;;;;;;;2.03;1.00;;;;;;;15.61;57.55;97574.25;5092764;28;20208;-66
2021/05/21 07:37:03;;;;;;;1.70;0.77;;;;;;;15.56;56.95;97584.50;5093809;28;20620;-66
2021/05/21 07:39:29;;;;;;;1.40;0.90;;;;;;;15.46;56.66;97581.91;5096900;28;20209;-67
2021/05/21 07:41:57;;;;;;;1.33;1.00;;;;;;;15.50;57.32;97582.44;5096833;28;20275;-66
2021/05/21 07:44:23;;;;;;;1.80;0.90;;;;;;;15.51;57.62;97584.97;5096771;28;20212;-66
2021/05/21 07:46:50;;;;;;;2.23;1.20;;;;;;;15.45;57.58;97584.75;5096674;28;20213;-66
2021/05/21 07:49:22;;;;;;;2.77;1.20;;;;;;;15.40;57.23;97587.00;5094588;28;20671;-67
2021/05/21 07:51:48;;;;;;;1.57;0.87;;;;;;;15.35;57.36;97589.28;5096660;28;20343;-67
2021/05/21 07:54:15;;;;;;;1.20;0.90;;;;;;;15.34;57.67;97590.25;5098290;28;20232;-67
2021/05/21 07:56:41;;;;;;;1.43;0.77;;;;;;;15.34;57.65;97587.59;5099537;28;20452;-67
2021/05/21 07:59:09;;;;;;;1.20;1.10;;;;;;;15.28;58.09;97586.31;5096855;28;20209;-69
2021/05/21 08:01:35;;;;;;;2.37;1.13;;;;;;;15.24;57.59;97584.97;5096620;28;20220;-67
2021/05/21 08:04:02;;;;;;;2.03;0.90;;;;;;;15.20;58.32;97574.72;5096457;28;20706;-67
2021/05/21 08:06:28;;;;;;;1.33;0.80;;;;;;;15.26;58.46;97579.47;5096099;28;20206;-67
2021/05/21 08:08:54;;;;;;;1.10;0.70;;;;;;;15.27;57.96;97570.50;5093467;28;20671;-67
2021/05/21 08:11:20;;;;;;;1.10;1.00;;;;;;;15.24;58.07;97565.47;5094563;28;20253;-67
2021/05/21 08:13:46;;;;;;;1.20;0.80;;;;;;;15.23;58.02;97564.66;5095496;28;20283;-66
2021/05/21 08:16:14;;;;;;;2.47;1.20;;;;;;;15.17;57.25;97549.28;5094219;28;20210;-67
2021/05/21 08:18:40;;;;;;;1.43;0.80;;;;;;;15.26;58.23;97543.03;5096235;28;20262;-66
2021/05/21 08:21:07;;;;;;;2.17;1.00;;;;;;;15.33;57.93;97538.00;5096175;28;20266;-66
2021/05/21 08:23:34;;;;;;;1.27;0.77;;;;;;;15.33;58.04;97540.66;5096136;28;20216;-66
2021/05/21 08:26:00;;;;;;;1.23;1.03;;;;;;;15.25;58.79;97545.84;5095723;28;20269;-66
2021/05/21 08:28:27;;;;;;;2.40;0.90;;;;;;;15.27;59.04;97543.88;5095962;28;20206;-66
2021/05/21 08:30:53;;;;;;;1.03;0.80;;;;;;;15.29;58.86;97536.59;5095672;28;20218;-66
2021/05/21 08:33:19;;;;;;;2.47;1.10;;;;;;;15.23;58.84;97547.81;5095756;28;20328;-66
2021/05/21 08:35:46;;;;;;;1.97;1.20;;;;;;;15.23;58.94;97546.00;5095789;28;20552;-66
2021/05/21 08:38:14;;;;;;;1.33;0.90;;;;;;;15.21;59.46;97545.31;5096017;28;20214;-66
2021/05/21 08:40:40;;;;;;;1.33;0.70;;;;;;;15.25;60.00;97551.16;5094305;28;20257;-67
2021/05/21 08:43:07;;;;;;;1.23;0.83;;;;;;;15.25;60.83;97553.81;5094862;28;20218;-66
2021/05/21 08:45:35;;;;;;;1.80;0.83;;;;;;;15.25;60.81;97551.16;5095465;28;20265;-66
2021/05/21 08:48:01;;;;;;;2.40;0.93;;;;;;;15.29;60.38;97557.88;5094886;28;20209;-66
2021/05/21 08:50:28;;;;;;;0.90;0.90;;;;;;;15.30;59.49;97554.22;5095519;28;20217;-66
2021/05/21 08:52:55;;;;;;;2.03;1.00;;;;;;;15.34;59.66;97550.31;5092901;28;20240;-66
2021/05/21 08:55:21;;;;;;;1.97;0.90;;;;;;;15.33;60.33;97553.97;5093512;28;20205;-66
2021/05/21 08:57:47;;;;;;;2.00;1.07;;;;;;;15.33;61.12;97561.97;5093281;28;20217;-66
2021/05/21 09:00:15;;;;;;;1.90;1.10;;;;;;;15.30;61.91;97554.22;5094513;28;20221;-66
2021/05/21 09:02:42;;;;;;;1.33;0.90;;;;;;;15.28;60.17;97561.53;5092710;28;20213;-66
2021/05/21 09:05:12;;;;;;;1.70;0.90;;;;;;;15.28;62.10;97558.88;5093107;28;20222;-66
2021/05/21 09:07:39;;;;;;;0.80;0.80;;;;;;;15.34;61.66;97556.47;5092690;28;20218;-67
2021/05/21 09:10:07;;;;;;;1.93;0.90;;;;;;;15.33;62.25;97559.31;5093756;28;20210;-67
2021/05/21 09:12:41;;;;;;;0.90;0.90;;;;;;;15.32;62.91;97557.56;5093931;28;20623;-67
2021/05/21 09:15:13;;;;;;;2.07;1.13;;;;;;;15.32;63.79;97560.22;5094323;28;20240;-66
2021/05/21 09:17:51;;;;;;;2.43;1.30;;;;;;;15.31;63.87;97555.91;5094300;28;20214;-66
2021/05/21 09:20:26;;;;;;;1.10;0.97;;;;;;;15.29;64.38;97557.88;5094337;28;20217;-67
2021/05/21 09:23:00;;;;;;;1.23;1.00;;;;;;;15.31;61.00;97550.56;5093188;28;20201;-68
2021/05/21 09:25:40;;;;;;;3.47;1.27;;;;;;;15.37;57.93;97555.34;5093998;28;20210;-66
2021/05/21 09:28:08;;;;;;;1.10;1.00;;;;;;;15.39;58.71;97559.53;5094297;28;20236;-67
2021/05/21 09:30:34;;;;;;;2.80;1.20;;;;;;;15.44;59.08;97554.59;5093200;28;20211;-66
2021/05/21 09:33:05;;;;;;;1.70;1.10;;;;;;;15.51;59.21;97547.69;5093616;28;20247;-66
2021/05/21 09:35:32;;;;;;;2.87;1.10;;;;;;;15.66;57.98;97537.34;5092134;28;20208;-66
2021/05/21 09:37:58;;;;;;;1.63;1.00;;;;;;;15.76;58.61;97528.28;5092922;28;20679;-67
2021/05/21 09:40:26;;;;;;;2.07;0.90;;;;;;;15.85;57.01;97523.88;5093366;28;20211;-67
2021/05/21 09:42:55;;;;;;;1.60;0.90;;;;;;;15.91;56.81;97525.91;5094325;28;20248;-67
2021/05/21 09:45:32;;;;;;;1.53;1.20;;;;;;;15.94;55.99;97536.28;5094590;28;20207;-67
2021/05/21 09:48:00;;;;;;;1.63;0.93;;;;;;;15.95;56.56;97546.78;5094206;28;20305;-67
2021/05/21 09:50:38;;;;;;;0.70;0.70;;;;;;;16.07;56.97;97547.38;5094427;28;20206;-67
2021/05/21 09:53:10;;;;;;;1.50;0.87;;;;;;;16.06;56.17;97559.06;5094023;28;20723;-67
2021/05/21 09:55:39;;;;;;;1.57;0.70;;;;;;;16.06;55.75;97545.72;5094176;28;20211;-67
2021/05/21 09:58:06;;;;;;;1.17;0.77;;;;;;;16.09;55.67;97560.41;5094013;28;20241;-67
2021/05/21 10:00:32;;;;;;;1.53;0.60;;;;;;;16.07;55.67;97569.53;5092672;28;20298;-67
2021/05/21 10:02:59;;;;;;;1.70;0.70;;;;;;;16.12;56.40;97585.09;5093171;28;20570;-67
2021/05/21 10:05:25;;;;;;;1.80;0.90;;;;;;;16.13;56.31;97587.59;5094144;28;20577;-67
2021/05/21 10:07:54;;;;;;;0.70;0.70;;;;;;;16.14;56.43;97584.78;5094050;28;20590;-67
2021/05/21 10:10:23;;;;;;;1.13;0.83;;;;;;;16.17;55.43;97587.16;5093885;28;20259;-67
2021/05/21 10:12:49;;;;;;;0.73;0.70;;;;;;;16.06;56.36;97596.38;5093683;28;20226;-66
2021/05/21 10:15:15;;;;;;;2.40;0.80;;;;;;;16.03;55.64;97582.34;5093928;28;20214;-66
2021/05/21 10:17:43;;;;;;;2.70;0.70;;;;;;;15.98;56.53;97583.78;5093603;28;20221;-66
2021/05/21 10:20:12;;;;;;;1.23;0.73;;;;;;;16.01;55.99;97585.31;5093671;28;20218;-66
2021/05/21 10:22:40;;;;;;;3.87;0.93;;;;;;;15.98;56.61;97600.59;5093837;28;20212;-67
2021/05/21 10:25:11;;;;;;;1.30;0.60;;;;;;;15.95;56.70;97600.06;5093463;28;20277;-66
2021/05/21 10:27:40;;;;;;;2.40;0.70;;;;;;;15.98;56.93;97598.94;5091758;28;20679;-66
2021/05/21 10:30:09;;;;;;;1.43;0.80;;;;;;;15.93;56.88;97593.22;5093720;28;20264;-66
2021/05/21 10:32:35;;;;;;;1.50;0.60;;;;;;;15.96;57.61;97596.44;5093309;28;20230;-66
2021/05/21 10:35:16;;;;;;;1.83;0.70;;;;;;;15.84;57.28;97587.00;5093429;28;20312;-67
2021/05/21 10:37:44;;;;;;;2.40;0.67;;;;;;;15.75;56.82;97593.22;5093588;28;20214;-66
2021/05/21 10:40:13;;;;;;;1.07;0.70;;;;;;;15.83;57.79;97600.47;5093538;28;20217;-67
2021/05/21 10:42:45;;;;;;;1.27;0.80;;;;;;;15.82;57.89;97599.63;5093729;28;20281;-67
2021/05/21 10:45:15;;;;;;;1.27;0.70;;;;;;;15.93;58.39;97601.22;5093205;28;20203;-66
2021/05/21 10:47:42;;;;;;;1.90;0.70;;;;;;;15.98;58.44;97596.28;5093069;28;20218;-66
2021/05/21 10:50:23;;;;;;;0.90;0.70;;;;;;;16.10;58.52;97599.38;5092840;28;20238;-66
2021/05/21 10:52:54;;;;;;;1.83;0.63;;;;;;;16.30;58.42;97595.59;5090733;28;20237;-66
2021/05/21 10:55:38;;;;;;;2.37;0.70;;;;;;;16.36;58.13;97602.97;5091653;28;20213;-66
2021/05/21 10:58:04;;;;;;;4.97;2.30;;;;;;;16.47;57.73;97602.72;5093052;28;20213;-66
2021/05/21 11:00:31;;;;;;;1.70;1.10;;;;;;;16.60;57.25;97613.00;5092412;28;20206;-65
2021/05/21 11:02:57;;;;;;;1.53;1.00;;;;;;;16.73;56.47;97608.94;5092676;28;20302;-65
2021/05/21 11:05:27;;;;;;;1.47;0.80;;;;;;;16.83;56.57;97604.31;5092655;28;20198;-66
2021/05/21 11:07:55;;;;;;;1.67;1.13;;;;;;;17.04;57.22;97595.94;5092631;28;20206;-66
2021/05/21 11:10:41;;;;;;;0.90;0.73;;;;;;;17.29;56.73;97595.91;5092713;28;20252;-66
2021/05/21 11:13:12;;;;;;;1.03;0.70;;;;;;;17.43;55.27;97598.00;5092956;28;20580;-65
2021/05/21 11:15:40;;;;;;;1.83;0.70;;;;;;;17.61;55.23;97590.72;5092738;28;20366;-66
2021/05/21 11:18:25;;;;;;;4.07;1.43;;;;;;;17.67;55.37;97600.75;5094416;28;20220;-66
2021/05/21 11:20:56;;;;;;;1.40;0.90;;;;;;;17.67;55.70;97600.75;5092774;28;20207;-66
2021/05/21 11:23:24;;;;;;;2.67;0.90;;;;;;;17.71;56.31;97599.44;5093136;28;20206;-66
2021/05/21 11:26:21;;;;;;;0.60;0.60;;;;;;;17.70;53.82;97589.75;5092490;28;20560;-67
2021/05/21 11:28:49;;;;;;;0.73;0.70;;;;;;;17.75;55.01;97584.72;5090315;28;20210;-66
2021/05/21 11:31:16;;;;;;;1.67;0.70;;;;;;;17.78;55.02;97586.25;5091434;28;20278;-65
2021/05/21 11:33:44;;;;;;;1.77;0.80;;;;;;;17.77;54.28;97579.22;5091990;28;20238;-65